CEST,Max TemperatureF,Mean TemperatureF,Min TemperatureF,Max Dew PointF,MeanDew PointF,Min DewpointF,Max Humidity, Mean Humidity, Min Humidity, Max Sea Level PressureIn, Mean Sea Level PressureIn, Min Sea Level PressureIn, Max VisibilityMiles, Mean VisibilityMiles, Min VisibilityMiles, Max Wind SpeedMPH, Mean Wind SpeedMPH, Max Gust SpeedMPH,PrecipitationIn, CloudCover, Events, WindDirDegrees
2013-4-1,72,64,57,55,49,40,94,61,24,29.89,29.78,29.68,19,7,6,20,10,32,0.00,3,Rain,288
2013-4-2,72,61,50,52,48,43,94,66,35,29.98,29.91,29.83,19,7,6,10,4,,0.00,3,Rain,243
2013-4-3,63,57,51,55,52,46,94,85,63,29.83,29.70,29.65,12,7,6,12,4,15,0.12,4,Rain,128
2013-4-4,61,56,51,54,50,42,100,83,38,29.71,29.65,29.59,19,7,2,9,3,,0.00,4,Rain,280
2013-4-5,66,60,53,55,51,41,100,81,55,29.92,29.72,29.65,19,6,2,14,5,22,0.83,5,Rain,269
2013-4-6,65,56,48,39,35,29,62,46,19,30.15,30.07,29.95,9,6,6,17,11,29,0.00,1,,307
2013-4-7,65,56,46,45,40,32,81,55,28,30.16,30.06,29.98,19,16,12,15,9,,0.00,,,273
2013-4-8,76,63,50,50,42,37,76,45,17,30.02,29.96,29.89,19,8,6,20,12,21,0.00,1,,281
2013-4-9,74,66,59,52,47,34,77,54,15,30.06,30.00,29.95,16,8,6,21,12,30,0.00,1,,298
2013-4-10,78,68,59,54,52,48,77,60,30,30.12,30.08,30.04,19,7,6,17,12,,0.00,1,,294
2013-4-11,80,68,57,55,52,48,94,60,36,30.09,30.02,29.95,19,7,6,16,11,,0.00,1,,291
2013-4-12,79,69,59,54,46,37,77,49,18,30.07,30.03,29.98,12,7,6,13,11,,0.00,1,,286
2013-4-13,70,60,51,57,51,41,88,69,40,30.15,30.09,30.04,19,16,12,12,6,,0.00,,,140
2013-4-14,72,62,51,55,51,48,94,67,36,30.18,30.13,30.09,19,11,6,13,7,,0.00,1,,193
2013-4-15,70,62,53,59,56,52,94,83,58,30.22,30.18,30.12,12,5,3,14,5,,0.00,1,,129
2013-4-16,70,62,55,59,57,55,100,86,52,30.18,30.13,30.09,12,3,0,10,5,,0.00,3,Fog,184
2013-4-17,69,64,59,59,57,54,94,81,55,30.20,30.16,30.12,6,4,3,12,4,,0.00,5,,132
2013-4-18,68,62,56,57,56,52,100,85,62,30.19,30.13,30.06,6,3,2,12,3,,0.00,4,,147
2013-4-19,70,62,53,59,56,54,100,86,67,30.12,30.06,30.01,5,3,2,13,4,,0.00,2,,133
2013-4-20,68,64,60,60,57,55,94,81,64,30.19,30.15,30.09,9,6,1,12,6,,0.00,3,,133
2013-4-21,69,63,57,57,55,50,94,76,52,30.15,30.07,30.01,12,6,6,13,4,,0.00,2,,131
2013-4-22,70,64,58,57,55,52,94,77,52,30.04,30.00,29.95,12,5,2,12,4,13,0.04,4,,143
2013-4-23,68,62,55,57,53,50,94,74,45,30.16,30.09,30.04,19,7,3,18,9,,0.00,3,Rain,112
2013-4-24,68,62,55,52,50,45,82,65,35,30.17,30.13,30.09,19,7,6,13,8,,0.00,2,,128
2013-4-25,75,64,52,50,47,43,94,56,27,30.12,29.97,29.89,19,8,6,15,7,26,0.00,2,,278
2013-4-26,71,66,62,59,57,48,88,77,36,29.99,29.94,29.89,19,6,6,14,8,,0.00,3,,110
2013-4-27,79,68,57,59,54,45,100,67,28,29.89,29.74,29.65,16,6,3,16,4,,0.00,2,,272
2013-4-28,64,58,50,48,42,32,72,58,25,30.00,29.68,29.62,19,7,6,22,8,36,0.00,3,Rain,295
2013-4-29,61,54,46,46,38,30,87,58,26,29.86,29.79,29.74,12,6,6,16,8,28,0.04,3,Rain,283
2013-4-30,61,54,48,48,47,44,100,79,47,30.01,29.90,29.83,19,7,5,12,4,,0.04,3,Rain,236